Time;durP1;ratioP1;P1;durP2;ratioP2;P2;SDS_P1;SDS_P2;PMS_P1;PMS_P2;Temp;Humidity;BMP_temperature;BMP_pressure;BME280_temperature;BME280_humidity;BME280_pressure;Samples;Min_cycle;Max_cycle;Signal;HPM_P1;HPM_P2
2022/04/11 00:01:03;;;;;;;9.32;5.10;;;;;;;;;;4992125;28;100794;-78
2022/04/11 00:03:30;;;;;;;5.70;4.80;;;;;;;;;;4991287;28;101389;-75
2022/04/11 00:05:56;;;;;;;7.07;5.15;;;;;;;;;;4992254;28;98557;-76
2022/04/11 00:08:23;;;;;;;6.03;5.38;;;;;;;;;;4991653;28;99299;-77
2022/04/11 00:10:49;;;;;;;7.82;5.18;;;;;;;;;;4991544;28;100417;-77
2022/04/11 00:13:16;;;;;;;7.45;5.50;;;;;;;;;;4991039;28;98899;-76
2022/04/11 00:15:42;;;;;;;6.20;5.10;;;;;;;;;;4995200;28;99323;-76
2022/04/11 00:18:09;;;;;;;6.75;5.65;;;;;;;;;;4992272;28;98209;-77
2022/04/11 00:20:36;;;;;;;9.00;5.38;;;;;;;;;;4992420;28;99517;-76
2022/04/11 00:23:03;;;;;;;6.72;4.78;;;;;;;;;;4992314;28;101427;-76
2022/04/11 00:25:30;;;;;;;8.68;5.65;;;;;;;;;;4994598;28;98396;-76
2022/04/11 00:27:56;;;;;;;6.93;5.70;;;;;;;;;;4995171;28;99610;-76
2022/04/11 00:30:22;;;;;;;6.88;5.53;;;;;;;;;;4995010;28;100206;-77
2022/04/11 00:32:49;;;;;;;5.32;4.88;;;;;;;;;;4995579;28;98854;-78
2022/04/11 00:35:15;;;;;;;6.88;5.60;;;;;;;;;;4994083;28;100520;-75
2022/04/11 00:37:42;;;;;;;6.53;5.35;;;;;;;;;;4996426;28;102744;-76
2022/04/11 00:40:09;;;;;;;6.32;5.70;;;;;;;;;;4995331;28;99260;-76
2022/04/11 00:42:37;;;;;;;6.80;5.43;;;;;;;;;;4994904;28;99742;-77
2022/04/11 00:45:04;;;;;;;6.65;5.68;;;;;;;;;;4995818;28;97620;-77
2022/04/11 00:47:31;;;;;;;6.00;5.40;;;;;;;;;;4993872;28;99879;-75
2022/04/11 00:50:02;;;;;;;6.15;5.60;;;;;;;;;;4993120;28;102791;-76
2022/04/11 00:52:30;;;;;;;6.35;5.10;;;;;;;;;;4994543;28;99198;-76
2022/04/11 00:54:57;;;;;;;5.75;5.18;;;;;;;;;;4993946;28;100576;-77
2022/04/11 00:57:24;;;;;;;6.50;5.13;;;;;;;;;;4993494;28;101334;-77
2022/04/11 00:59:51;;;;;;;7.65;5.22;;;;;;;;;;4998401;28;98253;-77
2022/04/11 01:02:17;;;;;;;5.90;5.35;;;;;;;;;;4993149;28;102603;-77
2022/04/11 01:04:44;;;;;;;6.28;5.60;;;;;;;;;;4994495;28;98398;-76
2022/04/11 01:07:14;;;;;;;7.78;6.32;;;;;;;;;;4994713;28;99170;-76
2022/04/11 01:09:41;;;;;;;8.02;6.32;;;;;;;;;;4995098;28;99003;-76
2022/04/11 01:12:08;;;;;;;9.20;6.13;;;;;;;;;;4993615;28;98401;-75
2022/04/11 01:14:34;;;;;;;8.27;5.95;;;;;;;;;;4993704;28;101375;-77
2022/04/11 01:17:00;;;;;;;12.55;6.45;;;;;;;;;;4988136;28;102221;-76
2022/04/11 01:19:27;;;;;;;8.32;5.82;;;;;;;;;;4992949;28;98468;-76
2022/04/11 01:21:53;;;;;;;7.93;6.53;;;;;;;;;;4996298;28;102309;-76
2022/04/11 01:24:22;;;;;;;7.05;6.35;;;;;;;;;;4993544;28;98460;-76
2022/04/11 01:26:51;;;;;;;6.57;5.72;;;;;;;;;;4993325;28;101658;-77
2022/04/11 01:29:19;;;;;;;8.90;6.60;;;;;;;;;;4992758;28;102190;-77
2022/04/11 01:31:46;;;;;;;7.15;6.45;;;;;;;;;;4992701;28;98566;-76
2022/04/11 01:34:14;;;;;;;11.10;6.38;;;;;;;;;;4992980;28;101607;-76
2022/04/11 01:36:40;;;;;;;8.10;6.88;;;;;;;;;;4992918;28;101419;-77
2022/04/11 01:39:09;;;;;;;8.48;5.97;;;;;;;;;;4993349;28;98756;-76
2022/04/11 01:41:36;;;;;;;7.20;6.38;;;;;;;;;;4992514;28;101726;-77
2022/04/11 01:44:03;;;;;;;8.48;6.10;;;;;;;;;;4995828;28;101723;-76
2022/04/11 01:46:29;;;;;;;7.63;5.90;;;;;;;;;;4992747;28;101324;-76
2022/04/11 01:49:08;;;;;;;6.38;5.60;;;;;;;;;;4992297;28;102167;-76
2022/04/11 01:51:34;;;;;;;6.57;5.97;;;;;;;;;;4994198;28;98497;-76
2022/04/11 01:54:00;;;;;;;6.90;6.13;;;;;;;;;;4994162;28;99339;-76
2022/04/11 01:56:27;;;;;;;6.30;5.75;;;;;;;;;;4992458;28;101963;-76
2022/04/11 01:58:54;;;;;;;7.50;5.60;;;;;;;;;;4993354;28;97811;-76
2022/04/11 02:01:21;;;;;;;8.15;6.05;;;;;;;;;;4992945;28;100698;-77
2022/04/11 02:03:47;;;;;;;9.63;6.55;;;;;;;;;;4996992;28;99648;-77
2022/04/11 02:06:14;;;;;;;8.25;7.40;;;;;;;;;;4992419;28;103346;-77
2022/04/11 02:08:42;;;;;;;8.50;6.40;;;;;;;;;;4992433;28;102051;-76
2022/04/11 02:11:11;;;;;;;7.82;6.82;;;;;;;;;;4992883;28;98468;-77
2022/04/11 02:13:38;;;;;;;7.60;6.50;;;;;;;;;;4992366;28;101248;-77
2022/04/11 02:16:05;;;;;;;9.35;6.55;;;;;;;;;;4993490;28;98794;-77
2022/04/11 02:18:32;;;;;;;8.18;6.85;;;;;;;;;;4992721;28;98431;-77
2022/04/11 02:20:59;;;;;;;12.25;7.70;;;;;;;;;;4992438;28;102359;-76
2022/04/11 02:23:26;;;;;;;8.68;7.80;;;;;;;;;;4993899;28;98396;-76
2022/04/11 02:25:52;;;;;;;10.10;6.95;;;;;;;;;;4979103;28;99596;-77
2022/04/11 02:28:19;;;;;;;9.65;7.90;;;;;;;;;;5008608;28;102002;-76
2022/04/11 02:30:45;;;;;;;9.23;7.28;;;;;;;;;;4991530;28;99338;-77
2022/04/11 02:33:12;;;;;;;8.57;7.50;;;;;;;;;;4992442;28;101854;-77
2022/04/11 02:35:39;;;;;;;10.23;7.35;;;;;;;;;;4991867;28;102245;-77
2022/04/11 02:38:06;;;;;;;8.43;7.43;;;;;;;;;;4992158;28;98573;-76
2022/04/11 02:40:33;;;;;;;8.30;7.10;;;;;;;;;;4992153;28;101620;-76
2022/04/11 02:43:28;;;;;;;9.50;6.32;;;;;;;;;;4983454;28;99999;-78
2022/04/11 02:46:02;;;;;;;6.55;5.93;;;;;;;;;;4992213;28;98451;-77
2022/04/11 02:48:32;;;;;;;8.02;5.45;;;;;;;;;;4979828;28;102059;-76
2022/04/11 02:51:08;;;;;;;6.05;5.30;;;;;;;;;;4992098;28;98450;-77
2022/04/11 02:53:42;;;;;;;9.23;5.60;;;;;;;;;;4991618;28;100811;-77
2022/04/11 02:56:10;;;;;;;6.28;5.68;;;;;;;;;;4990933;28;102723;-76
2022/04/11 02:58:36;;;;;;;7.18;5.75;;;;;;;;;;4992244;28;98493;-76
2022/04/11 03:01:03;;;;;;;7.47;5.55;;;;;;;;;;4991817;28;101208;-75
2022/04/11 03:03:31;;;;;;;9.02;5.78;;;;;;;;;;4991434;28;103137;-77
2022/04/11 03:05:58;;;;;;;10.98;6.40;;;;;;;;;;4991867;28;98542;-78
2022/04/11 03:08:25;;;;;;;11.38;6.40;;;;;;;;;;4991455;28;101576;-77
2022/04/11 03:10:51;;;;;;;7.38;6.57;;;;;;;;;;4978168;28;101811;-76
2022/04/11 03:13:18;;;;;;;9.23;7.47;;;;;;;;;;4992291;28;101487;-77
2022/04/11 03:15:45;;;;;;;16.83;7.78;;;;;;;;;;4991174;28;102035;-76
2022/04/11 03:18:15;;;;;;;12.88;8.85;;;;;;;;;;4991656;28;98950;-77
2022/04/11 03:20:41;;;;;;;13.52;8.82;;;;;;;;;;4991112;28;101731;-77
2022/04/11 03:23:08;;;;;;;9.32;8.02;;;;;;;;;;4991043;28;103001;-77
2022/04/11 03:25:37;;;;;;;13.90;7.72;;;;;;;;;;4992599;28;98478;-77
2022/04/11 03:28:08;;;;;;;8.82;7.93;;;;;;;;;;4991380;28;101939;-76
2022/04/11 03:30:36;;;;;;;9.38;7.80;;;;;;;;;;4991210;28;103161;-77
2022/04/11 03:33:02;;;;;;;11.77;7.72;;;;;;;;;;4994843;28;98347;-76
2022/04/11 03:35:31;;;;;;;8.52;7.63;;;;;;;;;;4991088;28;101404;-76
2022/04/11 03:37:59;;;;;;;8.50;7.40;;;;;;;;;;4991815;28;97819;-75
2022/04/11 03:40:27;;;;;;;8.20;7.40;;;;;;;;;;4975767;28;100807;-77
2022/04/11 03:42:58;;;;;;;10.55;7.60;;;;;;;;;;4990935;28;100112;-76
2022/04/11 03:45:25;;;;;;;8.55;7.75;;;;;;;;;;5007638;28;99158;-76
2022/04/11 03:47:53;;;;;;;11.50;7.38;;;;;;;;;;4990932;28;102860;-76
2022/04/11 03:50:23;;;;;;;8.15;7.35;;;;;;;;;;4990720;28;102195;-77
2022/04/11 03:52:50;;;;;;;9.52;7.60;;;;;;;;;;4991213;28;98460;-77
2022/04/11 03:55:17;;;;;;;11.40;7.93;;;;;;;;;;4994262;28;101354;-76
2022/04/11 03:57:48;;;;;;;8.37;7.57;;;;;;;;;;4993319;28;98525;-76
2022/04/11 04:00:16;;;;;;;9.20;7.45;;;;;;;;;;4996107;28;98710;-77
2022/04/11 04:02:53;;;;;;;11.02;7.20;;;;;;;;;;4994724;28;100523;-78
2022/04/11 04:05:20;;;;;;;10.65;7.10;;;;;;;;;;4994557;28;98456;-78
2022/04/11 04:07:53;;;;;;;10.35;8.00;;;;;;;;;;4994586;28;101809;-76
2022/04/11 04:10:19;;;;;;;11.07;7.60;;;;;;;;;;4993842;28;102916;-77
2022/04/11 04:12:46;;;;;;;8.15;7.35;;;;;;;;;;4994367;28;98454;-77
2022/04/11 04:15:17;;;;;;;9.55;7.72;;;;;;;;;;4997363;28;102406;-78
2022/04/11 04:17:53;;;;;;;9.60;7.82;;;;;;;;;;4994388;28;100217;-77
2022/04/11 04:20:21;;;;;;;9.23;7.88;;;;;;;;;;4994588;28;101765;-78
2022/04/11 04:22:47;;;;;;;8.73;7.75;;;;;;;;;;4995124;28;99712;-78
2022/04/11 04:25:15;;;;;;;9.55;7.72;;;;;;;;;;4994329;28;98399;-76
2022/04/11 04:27:41;;;;;;;11.82;7.93;;;;;;;;;;4994440;28;101766;-78
2022/04/11 04:30:09;;;;;;;12.18;8.75;;;;;;;;;;4993593;28;101258;-77
2022/04/11 04:32:38;;;;;;;8.93;8.02;;;;;;;;;;4994181;28;98386;-78
2022/04/11 04:35:06;;;;;;;10.00;8.45;;;;;;;;;;4993897;28;101523;-77
2022/04/11 04:37:33;;;;;;;11.90;8.60;;;;;;;;;;4998390;28;99850;-79
2022/04/11 04:40:01;;;;;;;16.75;8.95;;;;;;;;;;4993781;28;101959;-78
2022/04/11 04:42:28;;;;;;;15.02;8.45;;;;;;;;;;4993567;28;101925;-78
2022/04/11 04:45:01;;;;;;;10.18;8.93;;;;;;;;;;4993939;28;98428;-77
2022/04/11 04:47:30;;;;;;;10.27;8.38;;;;;;;;;;4994000;28;102458;-77
2022/04/11 04:49:57;;;;;;;10.48;8.88;;;;;;;;;;4993039;28;101893;-79
2022/04/11 04:52:26;;;;;;;10.80;8.45;;;;;;;;;;4993910;28;97777;-77
2022/04/11 04:54:56;;;;;;;12.90;8.57;;;;;;;;;;4993837;28;100993;-76
2022/04/11 04:57:22;;;;;;;14.07;7.60;;;;;;;;;;4993544;28;102091;-76
2022/04/11 04:59:49;;;;;;;10.60;8.30;;;;;;;;;;4996616;28;99398;-78
2022/04/11 05:02:21;;;;;;;10.85;8.02;;;;;;;;;;4993091;28;102386;-77
2022/04/11 05:04:48;;;;;;;11.45;8.45;;;;;;;;;;4976886;28;98464;-79
2022/04/11 05:07:14;;;;;;;11.68;8.75;;;;;;;;;;4994297;28;99705;-77
2022/04/11 05:09:42;;;;;;;14.05;9.30;;;;;;;;;;4992060;28;102122;-78
2022/04/11 05:12:08;;;;;;;13.57;8.45;;;;;;;;;;5010104;28;98520;-79
2022/04/11 05:14:37;;;;;;;10.38;8.82;;;;;;;;;;4994704;28;99657;-79
2022/04/11 05:17:09;;;;;;;10.30;8.77;;;;;;;;;;4993484;28;101700;-77
2022/04/11 05:19:36;;;;;;;10.95;9.02;;;;;;;;;;4993161;28;98490;-79
2022/04/11 05:22:06;;;;;;;10.93;8.70;;;;;;;;;;4996044;28;101841;-78
2022/04/11 05:24:33;;;;;;;11.38;8.57;;;;;;;;;;4992851;28;99261;-78
2022/04/11 05:26:59;;;;;;;10.93;9.40;;;;;;;;;;4993024;28;103057;-77
2022/04/11 05:29:26;;;;;;;13.77;9.35;;;;;;;;;;4993192;28;102135;-77
2022/04/11 05:31:52;;;;;;;13.13;9.07;;;;;;;;;;4993181;28;99621;-77
2022/04/11 05:34:19;;;;;;;11.70;9.35;;;;;;;;;;4993765;28;101330;-76
2022/04/11 05:36:46;;;;;;;10.35;8.43;;;;;;;;;;4997802;28;100540;-76
2022/04/11 05:39:13;;;;;;;11.48;8.43;;;;;;;;;;4993039;28;98596;-76
2022/04/11 05:41:40;;;;;;;15.75;9.43;;;;;;;;;;4993475;28;100451;-78
2022/04/11 05:44:06;;;;;;;11.70;8.57;;;;;;;;;;4995939;28;102319;-77
2022/04/11 05:46:39;;;;;;;11.68;8.45;;;;;;;;;;4992938;28;100941;-78
2022/04/11 05:49:15;;;;;;;11.43;9.13;;;;;;;;;;4992127;28;102185;-75
2022/04/11 05:51:42;;;;;;;11.45;8.75;;;;;;;;;;4992750;28;98417;-79
2022/04/11 05:54:08;;;;;;;13.05;9.75;;;;;;;;;;4994096;28;99169;-78
2022/04/11 05:56:35;;;;;;;10.90;9.02;;;;;;;;;;4992551;28;102117;-78
2022/04/11 05:59:08;;;;;;;26.77;9.82;;;;;;;;;;4992879;28;98503;-77
2022/04/11 06:01:35;;;;;;;20.63;14.60;;;;;;;;;;4992433;28;101776;-78
2022/04/11 06:04:02;;;;;;;19.00;14.95;;;;;;;;;;4992856;28;99869;-77
2022/04/11 06:06:30;;;;;;;24.33;12.25;;;;;;;;;;4995384;28;97676;-78
2022/04/11 06:08:56;;;;;;;13.43;9.27;;;;;;;;;;4991402;28;102278;-78
2022/04/11 06:11:24;;;;;;;10.70;8.65;;;;;;;;;;4992542;28;98434;-79
2022/04/11 06:13:52;;;;;;;9.32;8.40;;;;;;;;;;4975529;28;102604;-78
2022/04/11 06:16:18;;;;;;;10.43;8.35;;;;;;;;;;4992020;28;102344;-77
2022/04/11 06:18:45;;;;;;;11.13;7.75;;;;;;;;;;4992502;28;98395;-76
2022/04/11 06:21:12;;;;;;;9.90;7.80;;;;;;;;;;4992018;28;101403;-77
2022/04/11 06:23:38;;;;;;;9.45;7.70;;;;;;;;;;4993248;28;98960;-75
2022/04/11 06:26:05;;;;;;;12.52;8.18;;;;;;;;;;4996935;28;98379;-75
2022/04/11 06:28:36;;;;;;;14.55;9.65;;;;;;;;;;4991761;28;101507;-76
2022/04/11 06:31:03;;;;;;;10.43;9.00;;;;;;;;;;4992845;28;97918;-74
2022/04/11 06:33:31;;;;;;;13.25;8.20;;;;;;;;;;4992477;28;100771;-73
2022/04/11 06:35:59;;;;;;;15.40;8.13;;;;;;;;;;4991950;28;101349;-74
2022/04/11 06:38:26;;;;;;;13.95;9.60;;;;;;;;;;4991692;28;99192;-74
2022/04/11 06:40:53;;;;;;;13.30;9.38;;;;;;;;;;5008779;28;102128;-73
2022/04/11 06:43:20;;;;;;;13.43;9.85;;;;;;;;;;4991604;28;102620;-73
2022/04/11 06:45:58;;;;;;;16.33;9.85;;;;;;;;;;4992337;28;98706;-73
2022/04/11 06:48:25;;;;;;;14.05;9.60;;;;;;;;;;4978833;28;101725;-74
2022/04/11 06:50:53;;;;;;;17.17;9.65;;;;;;;;;;4991924;28;98379;-75
2022/04/11 06:53:19;;;;;;;14.88;10.40;;;;;;;;;;4993280;28;99717;-76
2022/04/11 06:55:47;;;;;;;20.60;10.85;;;;;;;;;;4992502;28;98398;-74
2022/04/11 06:58:14;;;;;;;17.00;10.20;;;;;;;;;;4992522;28;98459;-75
2022/04/11 07:00:41;;;;;;;16.17;10.57;;;;;;;;;;4992335;28;98950;-74
2022/04/11 07:03:07;;;;;;;13.73;10.35;;;;;;;;;;4990370;28;100554;-75
2022/04/11 07:05:34;;;;;;;15.00;11.18;;;;;;;;;;4992279;28;98360;-76
2022/04/11 07:08:01;;;;;;;13.27;10.75;;;;;;;;;;4992086;28;99801;-76
2022/04/11 07:10:27;;;;;;;12.57;10.23;;;;;;;;;;4995163;28;99705;-75
2022/04/11 07:12:53;;;;;;;16.08;11.00;;;;;;;;;;4992204;28;99054;-74
2022/04/11 07:15:20;;;;;;;14.40;10.25;;;;;;;;;;4991751;28;99633;-76
2022/04/11 07:17:46;;;;;;;11.98;10.60;;;;;;;;;;4992345;28;98431;-76
2022/04/11 07:20:14;;;;;;;16.70;10.80;;;;;;;;;;4992559;28;99668;-76
2022/04/11 07:22:40;;;;;;;13.82;10.73;;;;;;;;;;4991631;28;99664;-75
2022/04/11 07:25:07;;;;;;;15.32;10.73;;;;;;;;;;4992043;28;98463;-76
2022/04/11 07:27:33;;;;;;;12.07;10.35;;;;;;;;;;4991562;28;99947;-74
2022/04/11 07:29:59;;;;;;;16.73;11.30;;;;;;;;;;4991332;28;99624;-73
2022/04/11 07:32:26;;;;;;;13.48;11.20;;;;;;;;;;4996684;28;98379;-75
2022/04/11 07:34:53;;;;;;;12.02;10.80;;;;;;;;;;4995254;28;99538;-79
2022/04/11 07:37:19;;;;;;;14.95;10.90;;;;;;;;;;4995278;28;98488;-76
2022/04/11 07:39:45;;;;;;;15.45;10.60;;;;;;;;;;4995291;28;99509;-76
2022/04/11 07:42:12;;;;;;;16.13;11.30;;;;;;;;;;4995209;28;99724;-75
2022/04/11 07:44:38;;;;;;;14.32;11.00;;;;;;;;;;4995949;28;97717;-74
2022/04/11 07:47:04;;;;;;;12.65;11.32;;;;;;;;;;4994100;28;100252;-75
2022/04/11 07:49:31;;;;;;;12.40;10.50;;;;;;;;;;4994842;28;99598;-75
2022/04/11 07:51:57;;;;;;;11.68;10.35;;;;;;;;;;4994495;28;99140;-75
2022/04/11 07:54:24;;;;;;;12.43;10.77;;;;;;;;;;4997033;28;101233;-74
2022/04/11 07:56:50;;;;;;;12.02;10.82;;;;;;;;;;4995013;28;98415;-74
2022/04/11 07:59:16;;;;;;;13.15;10.50;;;;;;;;;;4993904;28;100705;-74
2022/04/11 08:01:43;;;;;;;13.73;10.95;;;;;;;;;;4994516;28;101006;-74
2022/04/11 08:04:09;;;;;;;12.63;10.30;;;;;;;;;;4995047;28;98444;-74
2022/04/11 08:06:36;;;;;;;14.02;9.65;;;;;;;;;;4993799;28;100695;-74
2022/04/11 08:09:03;;;;;;;11.93;9.93;;;;;;;;;;4996026;28;98569;-74
2022/04/11 08:11:31;;;;;;;13.48;9.70;;;;;;;;;;4995808;28;98373;-74
2022/04/11 08:13:58;;;;;;;12.98;10.43;;;;;;;;;;4998521;28;99339;-75
2022/04/11 08:16:24;;;;;;;15.00;10.20;;;;;;;;;;4994497;28;99678;-74
2022/04/11 08:18:51;;;;;;;13.23;11.02;;;;;;;;;;5010517;28;100752;-75
2022/04/11 08:21:17;;;;;;;11.70;9.98;;;;;;;;;;4994047;28;99674;-76
2022/04/11 08:23:43;;;;;;;16.05;9.80;;;;;;;;;;4994598;28;98425;-75
2022/04/11 08:26:10;;;;;;;11.82;9.70;;;;;;;;;;4995419;28;99334;-74
2022/04/11 08:28:36;;;;;;;15.48;9.30;;;;;;;;;;4995218;28;100005;-75
2022/04/11 08:31:03;;;;;;;14.23;9.65;;;;;;;;;;4995828;28;99483;-76
2022/04/11 08:33:29;;;;;;;17.50;10.23;;;;;;;;;;4996033;28;99441;-75
2022/04/11 08:35:56;;;;;;;9.73;8.82;;;;;;;;;;4997127;28;100025;-75
2022/04/11 08:38:22;;;;;;;10.55;8.68;;;;;;;;;;4995078;28;99352;-75
2022/04/11 08:40:50;;;;;;;8.93;8.02;;;;;;;;;;4994544;28;100686;-75
2022/04/11 08:43:19;;;;;;;11.18;8.88;;;;;;;;;;4992129;28;98372;-76
2022/04/11 08:45:46;;;;;;;11.13;8.50;;;;;;;;;;4994771;28;99565;-75
2022/04/11 08:48:12;;;;;;;10.63;8.13;;;;;;;;;;4994815;28;99497;-75
2022/04/11 08:50:39;;;;;;;10.10;7.90;;;;;;;;;;4994766;28;98352;-75
2022/04/11 08:53:06;;;;;;;9.73;8.05;;;;;;;;;;4995256;28;99334;-76
2022/04/11 08:55:32;;;;;;;9.63;7.53;;;;;;;;;;4994660;28;99409;-75
2022/04/11 08:57:59;;;;;;;11.45;7.47;;;;;;;;;;4998864;28;97685;-75
2022/04/11 09:00:25;;;;;;;11.20;7.78;;;;;;;;;;4994645;28;99374;-75
2022/04/11 09:02:51;;;;;;;12.68;6.82;;;;;;;;;;5010039;28;98411;-75
2022/04/11 09:05:22;;;;;;;7.53;6.82;;;;;;;;;;4994691;28;99277;-75
2022/04/11 09:07:52;;;;;;;8.15;5.90;;;;;;;;;;4994506;28;100850;-76
2022/04/11 09:10:19;;;;;;;8.02;5.75;;;;;;;;;;4994622;28;98314;-75
2022/04/11 09:12:47;;;;;;;7.25;5.50;;;;;;;;;;4994996;28;98903;-75
2022/04/11 09:15:13;;;;;;;6.78;5.03;;;;;;;;;;4994205;28;100803;-75
2022/04/11 09:17:41;;;;;;;6.05;5.40;;;;;;;;;;4994633;28;99746;-76
2022/04/11 09:20:10;;;;;;;5.82;5.32;;;;;;;;;;4997377;28;100931;-75
2022/04/11 09:22:40;;;;;;;5.68;4.97;;;;;;;;;;4995319;28;97774;-76
2022/04/11 09:25:17;;;;;;;8.02;4.82;;;;;;;;;;4994653;28;98687;-74
2022/04/11 09:27:44;;;;;;;9.30;5.70;;;;;;;;;;4993067;28;102532;-76
2022/04/11 09:30:40;;;;;;;7.28;5.93;;;;;;;;;;4993972;28;99155;-74
2022/04/11 09:33:07;;;;;;;5.82;5.28;;;;;;;;;;4985512;28;99649;-75
2022/04/11 09:35:38;;;;;;;8.93;6.20;;;;;;;;;;4976398;28;102577;-76
2022/04/11 09:38:15;;;;;;;10.07;6.13;;;;;;;;;;4994439;28;98542;-84
2022/04/11 09:40:43;;;;;;;8.45;6.85;;;;;;;;;;4992601;28;99552;-75
2022/04/11 09:43:10;;;;;;;9.50;6.82;;;;;;;;;;4996546;28;99687;-75
2022/04/11 09:45:41;;;;;;;12.27;8.00;;;;;;;;;;4993648;28;99568;-75
2022/04/11 09:48:08;;;;;;;11.57;8.83;;;;;;;;;;4993749;28;98978;-76
2022/04/11 09:50:35;;;;;;;9.80;8.75;;;;;;;;;;4992694;28;99286;-75
2022/04/11 09:53:08;;;;;;;12.15;9.77;;;;;;;;;;4993336;28;99524;-74
2022/04/11 09:55:36;;;;;;;10.75;9.30;;;;;;;;;;4992065;28;100548;-75
2022/04/11 09:58:03;;;;;;;13.52;8.80;;;;;;;;;;4988041;28;99468;-74
2022/04/11 10:00:29;;;;;;;10.02;8.40;;;;;;;;;;4993435;28;98440;-77
2022/04/11 10:02:57;;;;;;;10.85;8.55;;;;;;;;;;4992896;28;99861;-76
2022/04/11 10:05:24;;;;;;;10.00;8.90;;;;;;;;;;4996452;28;98428;-76
2022/04/11 10:07:54;;;;;;;12.35;9.10;;;;;;;;;;4992786;28;100840;-76
2022/04/11 10:10:22;;;;;;;11.30;9.00;;;;;;;;;;4993529;28;98757;-74
2022/04/11 10:12:48;;;;;;;9.40;8.50;;;;;;;;;;4993481;28;99777;-74
2022/04/11 10:15:15;;;;;;;9.93;9.02;;;;;;;;;;4992659;28;99594;-75
2022/04/11 10:17:41;;;;;;;10.63;8.73;;;;;;;;;;4993208;28;98357;-75
2022/04/11 10:20:08;;;;;;;11.30;8.65;;;;;;;;;;4992156;28;100661;-75
2022/04/11 10:22:40;;;;;;;13.23;8.65;;;;;;;;;;4992108;28;99780;-76
2022/04/11 10:25:07;;;;;;;8.95;8.02;;;;;;;;;;4996282;28;98407;-76
2022/04/11 10:27:34;;;;;;;14.10;8.18;;;;;;;;;;4992722;28;99271;-75
2022/04/11 10:30:03;;;;;;;9.82;8.07;;;;;;;;;;4993104;28;98258;-77
2022/04/11 10:32:30;;;;;;;12.25;8.10;;;;;;;;;;4992834;28;99146;-77
2022/04/11 10:35:01;;;;;;;8.98;8.07;;;;;;;;;;4992922;28;99296;-76
2022/04/11 10:37:28;;;;;;;11.60;7.60;;;;;;;;;;4988753;28;97982;-76
2022/04/11 10:40:13;;;;;;;10.02;7.32;;;;;;;;;;4989189;28;98567;-75
2022/04/11 10:43:00;;;;;;;8.05;7.03;;;;;;;;;;4990748;28;99063;-76
2022/04/11 10:45:30;;;;;;;8.68;7.50;;;;;;;;;;4988271;28;99115;-75
2022/04/11 10:47:56;;;;;;;11.90;7.10;;;;;;;;;;4992018;28;100155;-72
2022/04/11 10:50:24;;;;;;;11.98;7.50;;;;;;;;;;4992323;28;98461;-76
2022/04/11 10:52:52;;;;;;;11.73;6.80;;;;;;;;;;4992183;28;99425;-75
2022/04/11 10:55:19;;;;;;;11.70;6.78;;;;;;;;;;4992341;28;100287;-75
2022/04/11 10:57:50;;;;;;;6.88;6.18;;;;;;;;;;4992454;28;98416;-76
2022/04/11 11:00:20;;;;;;;8.45;6.10;;;;;;;;;;4992697;28;98790;-74
2022/04/11 11:02:53;;;;;;;7.25;6.32;;;;;;;;;;4992571;28;98426;-75
2022/04/11 11:05:30;;;;;;;6.05;5.22;;;;;;;;;;4987087;28;100576;-75
2022/04/11 11:08:09;;;;;;;8.02;6.00;;;;;;;;;;4991321;28;100313;-76
2022/04/11 11:10:43;;;;;;;6.75;5.25;;;;;;;;;;4986556;28;99959;-75
2022/04/11 11:13:29;;;;;;;5.63;4.90;;;;;;;;;;4992546;28;100175;-75
2022/04/11 11:16:00;;;;;;;6.70;5.88;;;;;;;;;;4992072;28;99597;-76
2022/04/11 11:18:27;;;;;;;;;;;;;;;;;;4988683;28;98522;-75
2022/04/11 11:20:55;;;;;;;7.32;5.70;;;;;;;;;;4991221;28;127543;-75
2022/04/11 11:23:23;;;;;;;6.40;5.10;;;;;;;;;;4992038;28;99773;-75
2022/04/11 11:25:50;;;;;;;6.57;5.25;;;;;;;;;;4992343;28;98439;-75
2022/04/11 11:28:16;;;;;;;8.07;5.25;;;;;;;;;;4975058;28;101688;-75
2022/04/11 11:30:43;;;;;;;7.63;5.40;;;;;;;;;;4991314;28;99809;-74
2022/04/11 11:33:16;;;;;;;6.10;5.47;;;;;;;;;;4995101;28;98751;-74
2022/04/11 11:35:50;;;;;;;6.55;5.85;;;;;;;;;;4990052;28;101774;-75
2022/04/11 11:38:24;;;;;;;6.38;5.78;;;;;;;;;;4992009;28;98430;-74
2022/04/11 11:40:57;;;;;;;7.45;5.78;;;;;;;;;;4991732;28;99412;-75
2022/04/11 11:43:25;;;;;;;6.00;5.55;;;;;;;;;;4991578;28;100349;-75
2022/04/11 11:45:56;;;;;;;9.63;5.72;;;;;;;;;;4991671;28;98567;-74
2022/04/11 11:48:24;;;;;;;7.97;5.45;;;;;;;;;;4992206;28;98529;-74
2022/04/11 11:50:51;;;;;;;6.95;5.55;;;;;;;;;;4990795;28;99807;-75
2022/04/11 11:53:18;;;;;;;5.85;5.35;;;;;;;;;;4988760;28;97795;-74
2022/04/11 11:55:54;;;;;;;9.88;5.28;;;;;;;;;;4995060;28;98395;-75
2022/04/11 11:58:21;;;;;;;6.65;6.00;;;;;;;;;;4991605;28;98400;-74
2022/04/11 12:00:48;;;;;;;6.22;5.68;;;;;;;;;;4991122;28;99622;-74
2022/04/11 12:06:00;;;;;;;7.18;6.00;;;;;;;;;;4991877;28;98411;-75
2022/04/11 12:08:30;;;;;;;6.60;5.95;;;;;;;;;;4991498;28;99271;-75
2022/04/11 12:10:58;;;;;;;6.72;6.07;;;;;;;;;;4989359;28;99490;-74
2022/04/11 12:13:25;;;;;;;11.20;6.40;;;;;;;;;;4991711;28;98490;-75
2022/04/11 12:15:51;;;;;;;6.80;6.20;;;;;;;;;;4991677;28;98873;-75
2022/04/11 12:18:18;;;;;;;6.95;6.07;;;;;;;;;;4996127;28;99885;-75
2022/04/11 12:20:45;;;;;;;5.95;5.32;;;;;;;;;;4994654;28;100823;-76
2022/04/11 12:23:12;;;;;;;7.00;5.60;;;;;;;;;;4990343;28;99782;-77
2022/04/11 12:25:44;;;;;;;11.52;6.30;;;;;;;;;;4994426;28;99267;-77
2022/04/11 12:28:14;;;;;;;6.07;5.20;;;;;;;;;;4995048;28;99687;-77
2022/04/11 12:30:44;;;;;;;8.03;5.50;;;;;;;;;;4989138;28;99327;-77
2022/04/11 12:33:12;;;;;;;6.05;5.45;;;;;;;;;;4994910;28;98422;-77
2022/04/11 12:35:39;;;;;;;12.02;5.40;;;;;;;;;;4994683;28;99342;-78
2022/04/11 12:38:08;;;;;;;7.05;5.78;;;;;;;;;;4997766;28;99650;-78
2022/04/11 12:40:42;;;;;;;6.85;5.75;;;;;;;;;;4994179;28;99252;-77
2022/04/11 12:43:22;;;;;;;7.15;5.55;;;;;;;;;;4991720;28;99072;-78
2022/04/11 12:46:03;;;;;;;8.80;5.32;;;;;;;;;;4985994;28;98554;-77
2022/04/11 12:48:30;;;;;;;;;;;;;;;;;;4992122;28;99862;-78
2022/04/11 12:51:09;;;;;;;5.75;5.18;;;;;;;;;;4994400;28;130510;-70
2022/04/11 12:53:35;;;;;;;7.32;5.93;;;;;;;;;;4990661;28;98419;-75
2022/04/11 12:56:08;;;;;;;10.20;5.60;;;;;;;;;;4994728;28;99370;-75
2022/04/11 12:58:37;;;;;;;7.07;6.25;;;;;;;;;;4994232;28;99230;-76
2022/04/11 13:01:03;;;;;;;8.35;6.20;;;;;;;;;;4997625;28;98380;-75
2022/04/11 13:03:30;;;;;;;9.30;6.57;;;;;;;;;;4994132;28;99281;-75
2022/04/11 13:05:57;;;;;;;7.80;6.05;;;;;;;;;;4994483;28;99156;-76
2022/04/11 13:08:24;;;;;;;9.90;6.60;;;;;;;;;;4994795;28;98935;-76
2022/04/11 13:10:51;;;;;;;10.43;6.40;;;;;;;;;;4993033;28;101679;-76
2022/04/11 13:13:17;;;;;;;8.07;6.13;;;;;;;;;;4993910;28;98475;-75
2022/04/11 13:18:29;;;;;;;9.90;6.40;;;;;;;;;;4989947;28;99437;-76
2022/04/11 13:20:55;;;;;;;8.05;6.90;;;;;;;;;;4993559;28;98521;-75
2022/04/11 13:23:22;;;;;;;8.02;6.93;;;;;;;;;;4997045;28;99397;-75
2022/04/11 13:25:48;;;;;;;9.18;6.22;;;;;;;;;;4993629;28;98401;-75
2022/04/11 13:28:20;;;;;;;6.80;6.18;;;;;;;;;;4994088;28;98846;-75
2022/04/11 13:30:46;;;;;;;7.10;6.10;;;;;;;;;;4991913;28;99800;-76
2022/04/11 13:33:16;;;;;;;7.30;6.38;;;;;;;;;;4994210;28;98579;-76
2022/04/11 13:35:42;;;;;;;8.25;5.72;;;;;;;;;;4993851;28;98797;-76
2022/04/11 13:38:09;;;;;;;8.57;6.95;;;;;;;;;;4993530;28;99631;-76
2022/04/11 13:40:35;;;;;;;12.30;6.50;;;;;;;;;;4992723;28;99207;-76
2022/04/11 13:43:02;;;;;;;6.53;6.03;;;;;;;;;;4993838;28;99614;-80
2022/04/11 13:45:41;;;;;;;9.07;6.45;;;;;;;;;;4993367;28;98961;-76
2022/04/11 13:48:09;;;;;;;9.55;7.25;;;;;;;;;;4989917;28;98758;-75
2022/04/11 13:50:36;;;;;;;7.25;6.55;;;;;;;;;;4992288;28;100708;-72
2022/04/11 13:53:03;;;;;;;9.77;7.25;;;;;;;;;;4991708;28;98464;-72
2022/04/11 13:55:29;;;;;;;8.02;7.15;;;;;;;;;;4991152;28;99359;-73
2022/04/11 13:57:56;;;;;;;12.40;7.70;;;;;;;;;;4993276;28;98617;-73
2022/04/11 14:00:22;;;;;;;8.25;7.28;;;;;;;;;;4993113;28;98817;-73
2022/04/11 14:02:49;;;;;;;18.88;7.93;;;;;;;;;;4992891;28;100118;-73
2022/04/11 14:05:15;;;;;;;10.63;7.55;;;;;;;;;;4992738;28;100861;-74
2022/04/11 14:07:42;;;;;;;12.50;6.93;;;;;;;;;;4996631;28;98477;-74
2022/04/11 14:10:10;;;;;;;9.38;7.10;;;;;;;;;;4993103;28;99637;-74
2022/04/11 14:12:37;;;;;;;8.80;6.97;;;;;;;;;;4993022;28;99176;-74
2022/04/11 14:15:03;;;;;;;7.80;6.75;;;;;;;;;;4992079;28;99967;-74
2022/04/11 14:17:29;;;;;;;7.45;6.63;;;;;;;;;;4992985;28;99815;-75
2022/04/11 14:19:56;;;;;;;8.10;6.70;;;;;;;;;;4992991;28;99408;-79
2022/04/11 14:22:23;;;;;;;9.80;6.38;;;;;;;;;;4993275;28;100027;-74
2022/04/11 14:24:50;;;;;;;7.45;6.55;;;;;;;;;;4992719;28;100770;-73
2022/04/11 14:27:16;;;;;;;7.45;6.32;;;;;;;;;;4990288;28;99254;-74
2022/04/11 14:29:44;;;;;;;10.10;6.47;;;;;;;;;;4994472;28;99437;-74
2022/04/11 14:32:10;;;;;;;6.72;5.72;;;;;;;;;;4992753;28;98914;-74
2022/04/11 14:34:43;;;;;;;9.20;6.47;;;;;;;;;;4992475;28;99292;-73
2022/04/11 14:37:09;;;;;;;8.38;6.50;;;;;;;;;;4992752;28;99629;-74
2022/04/11 14:39:36;;;;;;;8.20;6.28;;;;;;;;;;4992922;28;98437;-74
2022/04/11 14:42:05;;;;;;;8.30;6.00;;;;;;;;;;4992372;28;98570;-73